Georg Stage — OYKL — position and weather

sailwx.info

Track history (hours):
 
Tides and Currents Weather Stations Pressure Air Temp Water Temp Dewpoint Dewpoint Depression Visibility Wind Speed Wind Dir Waves Ship Positions

Georg Stage (Denmark)

Ship's website: http://www.georgstage.dk

Last reported at 2019-Aug-22 07:25 UTC. Time now 2019-Aug-22 09:33 UTC.
Position N 59°58' E 019°39'.

Length 54 m; draft 4.2 m.

Type: Sailing vessel. MMSI: 219417000.

Date/timePositionNaut miles runAvg speedWind from/ knotsBaromVisibWave heightAir tempDewpointWater temp
2019-Aug-22 07:25N 59°58' E 019°39'2 2.5
2019-Aug-22 06:35N 59°60' E 019°40'2 2.8
2019-Aug-22 06:01N 60°01' E 019°41'0 2.4
2019-Aug-22 06:00N 60°01' E 019°41'2 0.5
2019-Aug-22 02:15N 60°01' E 019°44'1 2.1
2019-Aug-22 01:58N 60°02' E 019°44'4 1.8
2019-Aug-21 23:41N 59°58' E 019°46'1 1.9
2019-Aug-21 23:10N 59°59' E 019°46'0 1.8
2019-Aug-21 23:00N 59°59' E 019°46'1 2.3
2019-Aug-21 22:30N 60°00' E 019°46'1 2.8
2019-Aug-21 22:00N 60°01' E 019°45'1 2.3
2019-Aug-21 21:30N 60°02' E 019°45'1 0.4
2019-Aug-21 18:55N 60°02' E 019°46'2 0.1
2019-Aug-21 06:15N 60°01' E 019°49'1 3.4
2019-Aug-21 05:59N 60°01' E 019°47'2 4.2
2019-Aug-21 05:26N 60°01' E 019°43'2 1.8
2019-Aug-21 04:18N 59°59' E 019°41'1 2.0
2019-Aug-21 03:56N 59°58' E 019°41'3 2.0
2019-Aug-21 02:22N 59°55' E 019°42'1 2.7
2019-Aug-21 02:00N 59°54' E 019°42'2 3.2
2019-Aug-21 01:30N 59°53' E 019°40'1 2.5
2019-Aug-21 01:00N 59°52' E 019°38'1 1.8
2019-Aug-21 00:30N 59°51' E 019°37'1 1.4
2019-Aug-21 00:00N 59°52' E 019°36'1 2.3
2019-Aug-20 23:30N 59°52' E 019°34'1 1.8
2019-Aug-20 23:00N 59°53' E 019°32'2 3.0
2019-Aug-20 22:30N 59°54' E 019°30'2 3.4
2019-Aug-20 21:54N 59°53' E 019°27'1 1.4
2019-Aug-20 21:23N 59°52' E 019°27'1 1.4
2019-Aug-20 20:37N 59°51' E 019°28'1 1.1
2019-Aug-20 19:58N 59°50' E 019°29'3 2.6
2019-Aug-20 18:52N 59°49' E 019°33'2 5.6
2019-Aug-20 18:30N 59°49' E 019°29'3 5.9
2019-Aug-20 18:00N 59°49' E 019°23'3 5.9
2019-Aug-20 17:30N 59°49' E 019°18'1 2.7
2019-Aug-20 17:00N 59°49' E 019°15'1 2.9
2019-Aug-20 16:30N 59°49' E 019°18'4 3.3
2019-Aug-20 15:17N 59°49' E 019°26'5 4.7
2019-Aug-20 14:18N 59°48' E 019°35'95 4.7
2019-Aug-19 17:52N 58°17' E 018°42'  
2019-Aug-17 12:52N 57°38' E 018°17'0 0.0
2019-Aug-17 12:22N 57°38' E 018°17'  
2019-Aug-15 04:17N 57°10' E 017°14'2 2.1
2019-Aug-15 03:34N 57°11' E 017°14'0 2.6
2019-Aug-15 03:29N 57°12' E 017°14'1 2.0
2019-Aug-15 03:01N 57°13' E 017°14'12 3.6
2019-Aug-14 23:34N 57°25' E 017°16'0 5.6
2019-Aug-14 23:31N 57°25' E 017°15'3 5.6
2019-Aug-14 23:01N 57°26' E 017°10'2 5.0
2019-Aug-14 22:30N 57°26' E 017°06'3 5.4
2019-Aug-14 22:01N 57°25' E 017°01'3 6.5
2019-Aug-14 21:30N 57°22' E 016°58'3 6.5
2019-Aug-14 21:01N 57°19' E 016°55'3 5.8
2019-Aug-14 20:31N 57°16' E 016°53'3 6.0
2019-Aug-14 20:01N 57°14' E 016°51'3 5.6
2019-Aug-14 19:30N 57°11' E 016°49'29 5.2
2019-Aug-14 14:03N 56°44' E 016°29'0 4.4
2019-Aug-14 14:01N 56°44' E 016°29'3 4.5
2019-Aug-14 13:25N 56°42' E 016°26'2 3.4
2019-Aug-14 12:58N 56°41' E 016°24'2 3.7
2019-Aug-14 12:30N 56°40' E 016°23'3 5.3
2019-Aug-14 12:00N 56°37' E 016°21'3 5.7
2019-Aug-14 11:31N 56°34' E 016°20'3 5.0
2019-Aug-14 11:00N 56°32' E 016°19'3 5.4
2019-Aug-14 10:31N 56°29' E 016°18'2 5.0
2019-Aug-14 10:00N 56°27' E 016°17'3 5.3
2019-Aug-14 09:31N 56°24' E 016°15'2 4.0
2019-Aug-14 09:00N 56°22' E 016°14'2 4.8
2019-Aug-14 08:30N 56°20' E 016°13'3 5.1
2019-Aug-14 08:01N 56°18' E 016°11'3 5.5
2019-Aug-14 07:31N 56°15' E 016°09'3 5.3
2019-Aug-14 07:01N 56°13' E 016°08'3 5.1
2019-Aug-14 06:31N 56°10' E 016°06'2 4.3
2019-Aug-14 06:01N 56°08' E 016°05'3 5.4
2019-Aug-14 05:31N 56°06' E 016°04'3 5.4
2019-Aug-14 05:00N 56°03' E 016°03'3 6.2
2019-Aug-14 04:31N 56°00' E 016°01'3 5.3
2019-Aug-14 04:01N 55°58' E 015°59'3 5.5
2019-Aug-14 03:31N 55°55' E 015°58'3 5.4
2019-Aug-14 03:00N 55°52' E 015°56'3 6.1
2019-Aug-14 02:30N 55°50' E 015°54'3 6.2
2019-Aug-14 02:01N 55°47' E 015°51'3 6.6
2019-Aug-14 01:31N 55°44' E 015°48'3 5.9
2019-Aug-14 01:01N 55°41' E 015°46'3 5.3
2019-Aug-14 00:30N 55°39' E 015°44'3 5.7
2019-Aug-14 00:00N 55°36' E 015°42'17 6.3
2019-Aug-13 21:17N 55°21' E 015°28'2 6.4
2019-Aug-13 21:00N 55°20' E 015°26'6 5.7
2019-Aug-13 20:00N 55°15' E 015°19'3 5.7
2019-Aug-13 19:30N 55°13' E 015°16'3 5.5
2019-Aug-13 18:57N 55°11' E 015°13'2 4.8
2019-Aug-13 18:29N 55°09' E 015°11'1 2.9
2019-Aug-13 18:00N 55°09' E 015°09'2 4.6
2019-Aug-13 17:30N 55°10' E 015°05'2 4.6
2019-Aug-13 17:00N 55°12' E 015°02'3 5.1
2019-Aug-13 16:27N 55°13' E 014°58'83 3.9
2019-Aug-12 19:12N 55°04' E 012°34'5 4.1
2019-Aug-12 18:02N 55°09' E 012°33'1 4.5
2019-Aug-12 17:53N 55°09' E 012°33'2 4.9
2019-Aug-12 17:29N 55°11' E 012°33'3 5.7
2019-Aug-12 17:01N 55°14' E 012°33'3 5.1
2019-Aug-12 16:30N 55°17' E 012°33'2 4.6
2019-Aug-12 16:01N 55°19' E 012°32'3 6.4
2019-Aug-12 15:30N 55°22' E 012°32'3 6.9
2019-Aug-12 15:00N 55°25' E 012°31'3 6.2
2019-Aug-12 14:30N 55°28' E 012°30'1 2.4
2019-Aug-12 13:59N 55°28' E 012°32'3 5.3
2019-Aug-12 13:29N 55°26' E 012°36'2 3.9
2019-Aug-12 13:00N 55°26' E 012°39'1 2.6
2019-Aug-12 12:30N 55°27' E 012°38'1 2.6
2019-Aug-12 12:00N 55°28' E 012°38'2 3.8
2019-Aug-12 11:30N 55°30' E 012°39'2 4.9
2019-Aug-12 11:00N 55°32' E 012°42'3 5.6
2019-Aug-12 10:30N 55°35' E 012°42'3 6.0
2019-Aug-12 10:01N 55°38' E 012°42'3 5.5
2019-Aug-12 09:30N 55°41' E 012°41'2 4.7
2019-Aug-12 09:00N 55°43' E 012°41'2 3.9
2019-Aug-12 08:30N 55°44' E 012°39'  
Track history (hours):
 
Tides and Currents Weather Stations Pressure Air Temp Water Temp Dewpoint Dewpoint Depression Visibility Wind Speed Wind Dir Waves Ship Positions

Georg Stage (Denmark)

Ship's website: http://www.georgstage.dk

Last reported at 2019-Aug-22 07:25 UTC. Time now 2019-Aug-22 09:33 UTC.
Position N 59°58' E 019°39'.

Length 54 m; draft 4.2 m.

Type: Sailing vessel. MMSI: 219417000.

Date/timePositionNaut miles runAvg speedWind from/ knotsBaromVisibWave heightAir tempDewpointWater temp
2019-Aug-22 07:25N 59°58' E 019°39'2 2.5
2019-Aug-22 06:35N 59°60' E 019°40'2 2.8
2019-Aug-22 06:01N 60°01' E 019°41'0 2.4
2019-Aug-22 06:00N 60°01' E 019°41'2 0.5
2019-Aug-22 02:15N 60°01' E 019°44'1 2.1
2019-Aug-22 01:58N 60°02' E 019°44'4 1.8
2019-Aug-21 23:41N 59°58' E 019°46'1 1.9
2019-Aug-21 23:10N 59°59' E 019°46'0 1.8
2019-Aug-21 23:00N 59°59' E 019°46'1 2.3
2019-Aug-21 22:30N 60°00' E 019°46'1 2.8
2019-Aug-21 22:00N 60°01' E 019°45'1 2.3
2019-Aug-21 21:30N 60°02' E 019°45'1 0.4
2019-Aug-21 18:55N 60°02' E 019°46'2 0.1
2019-Aug-21 06:15N 60°01' E 019°49'1 3.4
2019-Aug-21 05:59N 60°01' E 019°47'2 4.2
2019-Aug-21 05:26N 60°01' E 019°43'2 1.8
2019-Aug-21 04:18N 59°59' E 019°41'1 2.0
2019-Aug-21 03:56N 59°58' E 019°41'3 2.0
2019-Aug-21 02:22N 59°55' E 019°42'1 2.7
2019-Aug-21 02:00N 59°54' E 019°42'2 3.2
2019-Aug-21 01:30N 59°53' E 019°40'1 2.5
2019-Aug-21 01:00N 59°52' E 019°38'1 1.8
2019-Aug-21 00:30N 59°51' E 019°37'1 1.4
2019-Aug-21 00:00N 59°52' E 019°36'1 2.3
2019-Aug-20 23:30N 59°52' E 019°34'1 1.8
2019-Aug-20 23:00N 59°53' E 019°32'2 3.0
2019-Aug-20 22:30N 59°54' E 019°30'2 3.4
2019-Aug-20 21:54N 59°53' E 019°27'1 1.4
2019-Aug-20 21:23N 59°52' E 019°27'1 1.4
2019-Aug-20 20:37N 59°51' E 019°28'1 1.1
2019-Aug-20 19:58N 59°50' E 019°29'3 2.6
2019-Aug-20 18:52N 59°49' E 019°33'2 5.6
2019-Aug-20 18:30N 59°49' E 019°29'3 5.9
2019-Aug-20 18:00N 59°49' E 019°23'3 5.9
2019-Aug-20 17:30N 59°49' E 019°18'1 2.7
2019-Aug-20 17:00N 59°49' E 019°15'1 2.9
2019-Aug-20 16:30N 59°49' E 019°18'4 3.3
2019-Aug-20 15:17N 59°49' E 019°26'5 4.7
2019-Aug-20 14:18N 59°48' E 019°35'95 4.7
2019-Aug-19 17:52N 58°17' E 018°42'  
2019-Aug-17 12:52N 57°38' E 018°17'0 0.0
2019-Aug-17 12:22N 57°38' E 018°17'  
2019-Aug-15 04:17N 57°10' E 017°14'2 2.1
2019-Aug-15 03:34N 57°11' E 017°14'0 2.6
2019-Aug-15 03:29N 57°12' E 017°14'1 2.0
2019-Aug-15 03:01N 57°13' E 017°14'12 3.6
2019-Aug-14 23:34N 57°25' E 017°16'0 5.6
2019-Aug-14 23:31N 57°25' E 017°15'3 5.6
2019-Aug-14 23:01N 57°26' E 017°10'2 5.0
2019-Aug-14 22:30N 57°26' E 017°06'3 5.4
2019-Aug-14 22:01N 57°25' E 017°01'3 6.5
2019-Aug-14 21:30N 57°22' E 016°58'3 6.5
2019-Aug-14 21:01N 57°19' E 016°55'3 5.8
2019-Aug-14 20:31N 57°16' E 016°53'3 6.0
2019-Aug-14 20:01N 57°14' E 016°51'3 5.6
2019-Aug-14 19:30N 57°11' E 016°49'29 5.2
2019-Aug-14 14:03N 56°44' E 016°29'0 4.4
2019-Aug-14 14:01N 56°44' E 016°29'3 4.5
2019-Aug-14 13:25N 56°42' E 016°26'2 3.4
2019-Aug-14 12:58N 56°41' E 016°24'2 3.7
2019-Aug-14 12:30N 56°40' E 016°23'3 5.3
2019-Aug-14 12:00N 56°37' E 016°21'3 5.7
2019-Aug-14 11:31N 56°34' E 016°20'3 5.0
2019-Aug-14 11:00N 56°32' E 016°19'3 5.4
2019-Aug-14 10:31N 56°29' E 016°18'2 5.0
2019-Aug-14 10:00N 56°27' E 016°17'3 5.3
2019-Aug-14 09:31N 56°24' E 016°15'2 4.0
2019-Aug-14 09:00N 56°22' E 016°14'2 4.8
2019-Aug-14 08:30N 56°20' E 016°13'3 5.1
2019-Aug-14 08:01N 56°18' E 016°11'3 5.5
2019-Aug-14 07:31N 56°15' E 016°09'3 5.3
2019-Aug-14 07:01N 56°13' E 016°08'3 5.1
2019-Aug-14 06:31N 56°10' E 016°06'2 4.3
2019-Aug-14 06:01N 56°08' E 016°05'3 5.4
2019-Aug-14 05:31N 56°06' E 016°04'3 5.4
2019-Aug-14 05:00N 56°03' E 016°03'3 6.2
2019-Aug-14 04:31N 56°00' E 016°01'3 5.3
2019-Aug-14 04:01N 55°58' E 015°59'3 5.5
2019-Aug-14 03:31N 55°55' E 015°58'3 5.4
2019-Aug-14 03:00N 55°52' E 015°56'3 6.1
2019-Aug-14 02:30N 55°50' E 015°54'3 6.2
2019-Aug-14 02:01N 55°47' E 015°51'3 6.6
2019-Aug-14 01:31N 55°44' E 015°48'3 5.9
2019-Aug-14 01:01N 55°41' E 015°46'3 5.3
2019-Aug-14 00:30N 55°39' E 015°44'3 5.7
2019-Aug-14 00:00N 55°36' E 015°42'17 6.3
2019-Aug-13 21:17N 55°21' E 015°28'2 6.4
2019-Aug-13 21:00N 55°20' E 015°26'6 5.7
2019-Aug-13 20:00N 55°15' E 015°19'3 5.7
2019-Aug-13 19:30N 55°13' E 015°16'3 5.5
2019-Aug-13 18:57N 55°11' E 015°13'2 4.8
2019-Aug-13 18:29N 55°09' E 015°11'1 2.9
2019-Aug-13 18:00N 55°09' E 015°09'2 4.6
2019-Aug-13 17:30N 55°10' E 015°05'2 4.6
2019-Aug-13 17:00N 55°12' E 015°02'3 5.1
2019-Aug-13 16:27N 55°13' E 014°58'83 3.9
2019-Aug-12 19:12N 55°04' E 012°34'5 4.1
2019-Aug-12 18:02N 55°09' E 012°33'1 4.5
2019-Aug-12 17:53N 55°09' E 012°33'2 4.9
2019-Aug-12 17:29N 55°11' E 012°33'3 5.7
2019-Aug-12 17:01N 55°14' E 012°33'3 5.1
2019-Aug-12 16:30N 55°17' E 012°33'2 4.6
2019-Aug-12 16:01N 55°19' E 012°32'3 6.4
2019-Aug-12 15:30N 55°22' E 012°32'3 6.9
2019-Aug-12 15:00N 55°25' E 012°31'3 6.2
2019-Aug-12 14:30N 55°28' E 012°30'1 2.4
2019-Aug-12 13:59N 55°28' E 012°32'3 5.3
2019-Aug-12 13:29N 55°26' E 012°36'2 3.9
2019-Aug-12 13:00N 55°26' E 012°39'1 2.6
2019-Aug-12 12:30N 55°27' E 012°38'1 2.6
2019-Aug-12 12:00N 55°28' E 012°38'2 3.8
2019-Aug-12 11:30N 55°30' E 012°39'2 4.9
2019-Aug-12 11:00N 55°32' E 012°42'3 5.6
2019-Aug-12 10:30N 55°35' E 012°42'3 6.0
2019-Aug-12 10:01N 55°38' E 012°42'3 5.5
2019-Aug-12 09:30N 55°41' E 012°41'2 4.7
2019-Aug-12 09:00N 55°43' E 012°41'2 3.9
2019-Aug-12 08:30N 55°44' E 012°39'  

Dump ship's entire track history